DLH3MA EDDH-EDDF
Flight info
| Callsign | DLH3MA |
|---|---|
| Flight time | 0h 56m |
| Altitude | 30000 |
| Route | AMLUH2G/33 AMLUH M852 DENIX DCT RIMET/N0414F310 T157 KOKEB/N0360F230 T157 KERAX KERAX5A |
| Aircraft | A21N/M-SDE2E3FGIJ1LORWXYZ/HB1 |
Departure
| Time | 2026-05-04 17:05 |
|---|---|
| Airport | Hamburg Helmut Schmidt Airport (EDDH) |
Arrival
| Time | 2026-05-04 18:02 |
|---|---|
| Airport | Frankfurt Main Airport (EDDF) |
| Time | Latitude | Longitude | Altitude | Speed | Heading |
|---|---|---|---|---|---|
| 2026-05-04 16:19 | 53.62946 | 10.00284 | 51 ft | 0 kts | 122° |
| 2026-05-04 16:56 | 53.62943 | 10.00295 | 51 ft | 0 kts | 121° |
| 2026-05-04 17:00 | 53.62972 | 10.00223 | 47 ft | 4 kts | 132° |
| 2026-05-04 17:00 | 53.63009 | 10.00194 | 46 ft | 0 kts | 210° |
| 2026-05-04 17:03 | 53.63002 | 10.00187 | 52 ft | 3 kts | 210° |
| 2026-05-04 17:03 | 53.62926 | 10.00108 | 51 ft | 9 kts | 213° |
| 2026-05-04 17:04 | 53.62827 | 9.99907 | 51 ft | 14 kts | 242° |
| 2026-05-04 17:04 | 53.62858 | 9.99749 | 52 ft | 1 kts | 331° |
| 2026-05-04 17:05 | 53.63697 | 9.99018 | 55 ft | 133 kts | 333° |
| 2026-05-04 17:05 | 53.65689 | 9.97263 | 786 ft | 172 kts | 328° |
| 2026-05-04 17:06 | 53.67974 | 9.95320 | 2091 ft | 197 kts | 330° |
| 2026-05-04 17:06 | 53.69351 | 9.94614 | 2771 ft | 218 kts | 351° |
| 2026-05-04 17:07 | 53.72681 | 9.94736 | 4120 ft | 254 kts | 11° |
| 2026-05-04 17:07 | 53.73763 | 9.95495 | 4742 ft | 257 kts | 35° |
| 2026-05-04 17:07 | 53.75110 | 9.98705 | 5906 ft | 254 kts | 83° |
| 2026-05-04 17:07 | 53.75037 | 10.01591 | 6749 ft | 245 kts | 113° |
| 2026-05-04 17:08 | 53.74365 | 10.04225 | 7534 ft | 247 kts | 127° |
| 2026-05-04 17:08 | 53.72373 | 10.09496 | 8630 ft | 281 kts | 128° |
| 2026-05-04 17:08 | 53.71348 | 10.12351 | 9485 ft | 287 kts | 127° |
| 2026-05-04 17:09 | 53.70321 | 10.15292 | 10267 ft | 296 kts | 126° |
| 2026-05-04 17:09 | 53.69188 | 10.18318 | 10700 ft | 312 kts | 134° |
| 2026-05-04 17:09 | 53.67569 | 10.20731 | 11276 ft | 312 kts | 155° |
| 2026-05-04 17:10 | 53.63468 | 10.22972 | 12888 ft | 313 kts | 170° |
| 2026-05-04 17:10 | 53.57041 | 10.25801 | 15194 ft | 326 kts | 169° |
| 2026-05-04 17:11 | 53.54840 | 10.26799 | 15921 ft | 330 kts | 169° |
| 2026-05-04 17:11 | 53.52577 | 10.27829 | 16657 ft | 334 kts | 169° |
| 2026-05-04 17:11 | 53.48033 | 10.29900 | 18078 ft | 343 kts | 169° |
| 2026-05-04 17:12 | 53.45745 | 10.30941 | 18702 ft | 347 kts | 169° |
| 2026-05-04 17:12 | 53.41045 | 10.33077 | 19917 ft | 355 kts | 169° |
| 2026-05-04 17:13 | 53.33786 | 10.36341 | 21667 ft | 366 kts | 169° |
| 2026-05-04 17:14 | 53.26312 | 10.39688 | 23295 ft | 376 kts | 168° |
| 2026-05-04 17:14 | 53.23759 | 10.40558 | 23747 ft | 375 kts | 179° |
| 2026-05-04 17:14 | 53.18533 | 10.40191 | 24619 ft | 377 kts | 187° |
| 2026-05-04 17:15 | 53.15912 | 10.39875 | 25066 ft | 379 kts | 187° |
| 2026-05-04 17:15 | 53.10622 | 10.39293 | 25916 ft | 383 kts | 187° |
| 2026-05-04 17:16 | 53.05274 | 10.38742 | 26736 ft | 387 kts | 187° |
| 2026-05-04 17:16 | 52.97146 | 10.37919 | 27865 ft | 393 kts | 187° |
| 2026-05-04 17:17 | 52.94412 | 10.37642 | 28235 ft | 395 kts | 187° |
| 2026-05-04 17:17 | 52.86244 | 10.36821 | 29661 ft | 391 kts | 187° |
| 2026-05-04 17:18 | 52.83527 | 10.36545 | 29930 ft | 392 kts | 187° |
| 2026-05-04 17:19 | 52.72603 | 10.35454 | 29947 ft | 393 kts | 187° |
| 2026-05-04 17:20 | 52.61670 | 10.34361 | 29944 ft | 394 kts | 187° |
| 2026-05-04 17:20 | 52.53468 | 10.33550 | 29941 ft | 394 kts | 187° |
| 2026-05-04 17:21 | 52.42526 | 10.32469 | 29941 ft | 394 kts | 187° |
| 2026-05-04 17:22 | 52.37053 | 10.31931 | 29937 ft | 394 kts | 187° |
| 2026-05-04 17:23 | 52.26104 | 10.30852 | 29937 ft | 394 kts | 187° |
| 2026-05-04 17:24 | 52.17895 | 10.30050 | 29946 ft | 394 kts | 187° |
| 2026-05-04 17:25 | 52.06945 | 10.28983 | 29960 ft | 394 kts | 187° |
| 2026-05-04 17:26 | 51.96002 | 10.27922 | 29967 ft | 394 kts | 187° |
| 2026-05-04 17:27 | 51.82337 | 10.26610 | 29967 ft | 394 kts | 187° |
| 2026-05-04 17:28 | 51.71381 | 10.25559 | 29972 ft | 394 kts | 187° |
| 2026-05-04 17:29 | 51.54931 | 10.23995 | 29971 ft | 396 kts | 186° |
| 2026-05-04 17:30 | 51.46785 | 10.23225 | 29938 ft | 385 kts | 187° |
| 2026-05-04 17:31 | 51.41576 | 10.22737 | 29394 ft | 367 kts | 187° |
| 2026-05-04 17:31 | 51.34014 | 10.22006 | 28327 ft | 357 kts | 189° |
| 2026-05-04 17:32 | 51.29359 | 10.19513 | 26826 ft | 354 kts | 208° |
| 2026-05-04 17:33 | 51.22752 | 10.14323 | 24911 ft | 350 kts | 207° |
| 2026-05-04 17:33 | 51.20566 | 10.12648 | 24367 ft | 347 kts | 207° |
| 2026-05-04 17:34 | 51.14171 | 10.07799 | 22564 ft | 336 kts | 207° |
| 2026-05-04 17:34 | 51.12085 | 10.06223 | 22127 ft | 328 kts | 207° |
| 2026-05-04 17:35 | 51.06122 | 10.01725 | 21008 ft | 310 kts | 207° |
| 2026-05-04 17:35 | 51.02872 | 9.99280 | 20415 ft | 306 kts | 207° |
| 2026-05-04 17:35 | 51.00954 | 9.97840 | 20088 ft | 304 kts | 207° |
| 2026-05-04 17:36 | 50.98432 | 9.95947 | 19632 ft | 302 kts | 206° |
| 2026-05-04 17:36 | 50.96539 | 9.94528 | 19292 ft | 301 kts | 206° |
| 2026-05-04 17:36 | 50.94658 | 9.93118 | 18953 ft | 300 kts | 206° |
| 2026-05-04 17:36 | 50.93378 | 9.92162 | 18732 ft | 300 kts | 206° |
| 2026-05-04 17:37 | 50.91493 | 9.90752 | 18424 ft | 299 kts | 206° |
| 2026-05-04 17:37 | 50.89637 | 9.89365 | 18083 ft | 299 kts | 206° |
| 2026-05-04 17:37 | 50.87732 | 9.87943 | 17713 ft | 299 kts | 206° |
| 2026-05-04 17:37 | 50.85878 | 9.86559 | 17377 ft | 298 kts | 206° |
| 2026-05-04 17:38 | 50.83980 | 9.85147 | 17031 ft | 297 kts | 206° |
| 2026-05-04 17:38 | 50.82136 | 9.83777 | 16713 ft | 296 kts | 206° |
| 2026-05-04 17:38 | 50.80277 | 9.82396 | 16408 ft | 295 kts | 206° |
| 2026-05-04 17:38 | 50.78423 | 9.81019 | 16115 ft | 293 kts | 206° |
| 2026-05-04 17:39 | 50.74749 | 9.78293 | 15522 ft | 291 kts | 205° |
| 2026-05-04 17:39 | 50.72921 | 9.76939 | 15229 ft | 289 kts | 205° |
| 2026-05-04 17:39 | 50.71100 | 9.75589 | 14919 ft | 288 kts | 205° |
| 2026-05-04 17:40 | 50.69288 | 9.74246 | 14623 ft | 288 kts | 205° |
| 2026-05-04 17:40 | 50.67473 | 9.72903 | 14324 ft | 287 kts | 205° |
| 2026-05-04 17:40 | 50.65665 | 9.71566 | 14027 ft | 287 kts | 205° |
| 2026-05-04 17:40 | 50.63861 | 9.70234 | 13729 ft | 286 kts | 205° |
| 2026-05-04 17:41 | 50.62062 | 9.68908 | 13398 ft | 286 kts | 205° |
| 2026-05-04 17:41 | 50.60265 | 9.67585 | 13084 ft | 284 kts | 205° |
| 2026-05-04 17:41 | 50.58464 | 9.66260 | 12778 ft | 283 kts | 205° |
| 2026-05-04 17:41 | 50.56698 | 9.64960 | 12487 ft | 282 kts | 205° |
| 2026-05-04 17:42 | 50.54924 | 9.63656 | 12193 ft | 280 kts | 205° |
| 2026-05-04 17:42 | 50.53163 | 9.62361 | 11896 ft | 279 kts | 205° |
| 2026-05-04 17:42 | 50.51406 | 9.61070 | 11601 ft | 278 kts | 205° |
| 2026-05-04 17:42 | 50.49659 | 9.59784 | 11307 ft | 277 kts | 206° |
| 2026-05-04 17:43 | 50.48048 | 9.58129 | 11025 ft | 279 kts | 223° |
| 2026-05-04 17:43 | 50.46948 | 9.55617 | 10944 ft | 283 kts | 245° |
| 2026-05-04 17:43 | 50.46341 | 9.52676 | 10951 ft | 284 kts | 252° |
| 2026-05-04 17:43 | 50.45814 | 9.49684 | 10872 ft | 284 kts | 252° |
| 2026-05-04 17:44 | 50.45282 | 9.46706 | 10673 ft | 283 kts | 251° |
| 2026-05-04 17:44 | 50.44740 | 9.43744 | 10446 ft | 281 kts | 251° |
| 2026-05-04 17:44 | 50.44189 | 9.40797 | 10001 ft | 284 kts | 250° |
| 2026-05-04 17:44 | 50.43622 | 9.37807 | 9483 ft | 287 kts | 251° |
| 2026-05-04 17:45 | 50.43049 | 9.34755 | 8952 ft | 289 kts | 251° |
| 2026-05-04 17:45 | 50.42476 | 9.31717 | 8434 ft | 291 kts | 251° |
| 2026-05-04 17:45 | 50.41896 | 9.28665 | 7919 ft | 292 kts | 251° |
| 2026-05-04 17:45 | 50.41316 | 9.25626 | 7404 ft | 290 kts | 251° |
| 2026-05-04 17:46 | 50.40666 | 9.22651 | 7055 ft | 284 kts | 248° |
| 2026-05-04 17:46 | 50.40007 | 9.19810 | 6974 ft | 271 kts | 248° |
| 2026-05-04 17:46 | 50.39382 | 9.17121 | 6958 ft | 254 kts | 248° |
| 2026-05-04 17:46 | 50.38802 | 9.14615 | 6944 ft | 237 kts | 248° |
| 2026-05-04 17:47 | 50.38242 | 9.12204 | 6954 ft | 236 kts | 248° |
| 2026-05-04 17:47 | 50.37689 | 9.09830 | 6955 ft | 235 kts | 248° |
| 2026-05-04 17:47 | 50.37312 | 9.08205 | 6962 ft | 235 kts | 248° |
| 2026-05-04 17:47 | 50.36995 | 9.06832 | 6978 ft | 235 kts | 248° |
| 2026-05-04 17:48 | 50.36436 | 9.04422 | 6982 ft | 235 kts | 248° |
| 2026-05-04 17:48 | 50.35877 | 9.02023 | 6980 ft | 235 kts | 248° |
| 2026-05-04 17:48 | 50.35317 | 8.99618 | 6983 ft | 234 kts | 248° |
| 2026-05-04 17:48 | 50.34757 | 8.97227 | 6976 ft | 234 kts | 247° |
| 2026-05-04 17:49 | 50.34195 | 8.94828 | 6980 ft | 234 kts | 247° |
| 2026-05-04 17:49 | 50.33630 | 8.92439 | 6977 ft | 235 kts | 247° |
| 2026-05-04 17:49 | 50.33067 | 8.90036 | 6939 ft | 235 kts | 247° |
| 2026-05-04 17:49 | 50.32507 | 8.87641 | 6841 ft | 234 kts | 246° |
| 2026-05-04 17:50 | 50.31742 | 8.85383 | 6655 ft | 231 kts | 228° |
| 2026-05-04 17:50 | 50.30523 | 8.83837 | 6337 ft | 229 kts | 204° |
| 2026-05-04 17:50 | 50.28977 | 8.83379 | 6041 ft | 230 kts | 174° |
| 2026-05-04 17:50 | 50.27481 | 8.84242 | 5984 ft | 234 kts | 145° |
| 2026-05-04 17:51 | 50.26430 | 8.86175 | 5987 ft | 238 kts | 119° |
| 2026-05-04 17:51 | 50.25751 | 8.88590 | 5841 ft | 239 kts | 114° |
| 2026-05-04 17:51 | 50.25144 | 8.90982 | 5518 ft | 241 kts | 114° |
| 2026-05-04 17:51 | 50.24523 | 8.93425 | 5166 ft | 242 kts | 114° |
| 2026-05-04 17:52 | 50.23903 | 8.95840 | 4992 ft | 237 kts | 113° |
| 2026-05-04 17:52 | 50.23284 | 8.98217 | 4974 ft | 237 kts | 113° |
| 2026-05-04 17:52 | 50.22655 | 9.00603 | 4978 ft | 237 kts | 115° |
| 2026-05-04 17:52 | 50.22003 | 9.02969 | 4988 ft | 237 kts | 114° |
| 2026-05-04 17:53 | 50.21375 | 9.05347 | 4997 ft | 238 kts | 114° |
| 2026-05-04 17:53 | 50.20638 | 9.07642 | 4996 ft | 236 kts | 130° |
| 2026-05-04 17:53 | 50.19368 | 9.09110 | 4990 ft | 228 kts | 164° |
| 2026-05-04 17:53 | 50.17895 | 9.09099 | 4980 ft | 201 kts | 202° |
| 2026-05-04 17:54 | 50.16810 | 9.07887 | 5037 ft | 191 kts | 225° |
| 2026-05-04 17:54 | 50.15988 | 9.06255 | 5029 ft | 192 kts | 235° |
| 2026-05-04 17:54 | 50.15306 | 9.04477 | 5023 ft | 192 kts | 240° |
| 2026-05-04 17:54 | 50.14703 | 9.02622 | 5018 ft | 192 kts | 243° |
| 2026-05-04 17:55 | 50.14152 | 9.00728 | 5004 ft | 192 kts | 245° |
| 2026-05-04 17:55 | 50.13630 | 8.98813 | 5003 ft | 192 kts | 245° |
| 2026-05-04 17:55 | 50.13109 | 8.96864 | 4998 ft | 192 kts | 248° |
| 2026-05-04 17:55 | 50.12636 | 8.94916 | 4990 ft | 192 kts | 248° |
| 2026-05-04 17:56 | 50.12170 | 8.92966 | 4875 ft | 192 kts | 248° |
| 2026-05-04 17:56 | 50.11863 | 8.91672 | 4738 ft | 192 kts | 248° |
| 2026-05-04 17:56 | 50.11242 | 8.89062 | 4428 ft | 192 kts | 249° |
| 2026-05-04 17:56 | 50.10767 | 8.87061 | 4181 ft | 196 kts | 249° |
| 2026-05-04 17:57 | 50.10298 | 8.85090 | 3918 ft | 191 kts | 249° |
| 2026-05-04 17:57 | 50.09836 | 8.83147 | 3661 ft | 193 kts | 250° |
| 2026-05-04 17:57 | 50.09373 | 8.81198 | 3418 ft | 195 kts | 250° |
| 2026-05-04 17:57 | 50.08908 | 8.79245 | 3161 ft | 189 kts | 250° |
| 2026-05-04 17:58 | 50.08454 | 8.77336 | 2894 ft | 182 kts | 250° |
| 2026-05-04 17:58 | 50.08025 | 8.75533 | 2703 ft | 171 kts | 251° |
| 2026-05-04 17:58 | 50.07650 | 8.73917 | 2485 ft | 150 kts | 255° |
| 2026-05-04 17:58 | 50.07444 | 8.72392 | 2081 ft | 139 kts | 259° |
| 2026-05-04 17:59 | 50.07207 | 8.70931 | 1892 ft | 140 kts | 257° |
| 2026-05-04 17:59 | 50.06946 | 8.69478 | 1774 ft | 139 kts | 256° |
| 2026-05-04 17:59 | 50.06329 | 8.66614 | 1523 ft | 139 kts | 252° |
| 2026-05-04 18:00 | 50.06006 | 8.65196 | 1278 ft | 138 kts | 253° |
| 2026-05-04 18:00 | 50.05689 | 8.63815 | 1049 ft | 137 kts | 252° |
| 2026-05-04 18:00 | 50.05346 | 8.62443 | 869 ft | 135 kts | 252° |
| 2026-05-04 18:00 | 50.05043 | 8.61059 | 678 ft | 135 kts | 253° |
| 2026-05-04 18:01 | 50.04736 | 8.59682 | 510 ft | 135 kts | 252° |
| 2026-05-04 18:01 | 50.04416 | 8.58314 | 382 ft | 133 kts | 252° |
| 2026-05-04 18:01 | 50.04131 | 8.57108 | 370 ft | 96 kts | 249° |
| 2026-05-04 18:02 | 50.04010 | 8.56183 | 364 ft | 0 kts | 276° |
| 2026-05-04 18:02 | 50.04011 | 8.56177 | 363 ft | 2 kts | 276° |
| 2026-05-04 18:02 | 50.04013 | 8.56146 | 359 ft | 4 kts | 281° |
| 2026-05-04 18:02 | 50.04020 | 8.56101 | 357 ft | 5 kts | 283° |
| 2026-05-04 18:03 | 50.04041 | 8.56023 | 360 ft | 16 kts | 314° |
| 2026-05-04 18:03 | 50.04176 | 8.55928 | 361 ft | 23 kts | 340° |
| 2026-05-04 18:03 | 50.04295 | 8.55949 | 366 ft | 6 kts | 348° |
| 2026-05-04 18:03 | 50.04345 | 8.55928 | 366 ft | 10 kts | 341° |
| 2026-05-04 18:04 | 50.04462 | 8.55924 | 364 ft | 19 kts | 19° |
| 2026-05-04 18:04 | 50.04563 | 8.56005 | 361 ft | 14 kts | 61° |
| 2026-05-04 18:04 | 50.04644 | 8.56337 | 365 ft | 18 kts | 70° |
| 2026-05-04 18:05 | 50.04682 | 8.56499 | 363 ft | 9 kts | 72° |
| 2026-05-04 18:05 | 50.04670 | 8.56556 | 363 ft | 6 kts | 115° |
| 2026-05-04 18:05 | 50.04652 | 8.56615 | 363 ft | 5 kts | 116° |
| 2026-05-04 18:05 | 50.04640 | 8.56653 | 364 ft | 0 kts | 114° |
| 2026-05-04 18:06 | 50.04637 | 8.56664 | 364 ft | 1 kts | 114° |